Arlington, WA

11:59 AM PDT on September 01, 2014 (GMT -0700)
Arlington Municipal | Change Station
CLOSE
Current Station
Airport
Location: Arlington,
Elevation: 138 ft
Nearby Weather Stations

Elev 138 ft 48.16 °N, 122.16 °W | Updated 4 minutes ago

Overcast
Overcast
68 °F
Feels Like 68 °F
N
12
Wind Variable Wind from South

Today
High -- | Low -- °F
--% Chance of Precip.
Yesterday
High -- | Low -- °F
Precip. -- in
6:25 AM 7:48 PM
Waxing Crescent, 43% visible
Pressure 30.09 in
Visibility 10.0 miles
Clouds Overcast 8000 ft
Dew Point 54 °F
Humidity 60%
Rainfall 0.00 in
Snow Depth Not available.
UV 2 out of 12
Pollen 2.80 out of 12
PM2.5 Good
Flu Activity Not available.
METAR KAWO 011855Z AUTO 18010KT 10SM OVC080 20/12 A3009 RMK AO1

More Conditions Fewer Conditions

Pressure 30.09 in
Visibility 10.0 miles
Clouds Overcast 8000 ft
Dew Point 54 °F
Humidity 60%
Rainfall 0.00 in
Snow Depth Not available.
UV 2 out of 12
Pollen 2.80 out of 12
PM2.5 Good
Flu Activity Not available.
METAR KAWO 011855Z AUTO 18010KT 10SM OVC080 20/12 A3009 RMK AO1

More Conditions Fewer Conditions

10-Day Weather Forecast

Almanac

Astronomy

Sep. 01, 2014 Rise Set
Actual Time 6:25 AM PDT 7:48 PM PDT
Civil Twilight 5:53 AM PDT 8:21 PM PDT
Nautical Twilight 5:14 AM PDT 9:00 PM PDT
Astronomical Twilight 4:31 AM PDT 9:42 PM PDT
Moon 1:48 PM PDT 11:22 PM PDT
Length of Visible Light 14h 27m
Length of Day
13h 23m
Tomorrow will be 3m 23s shorter.
Waxing Crescent, 43% of the Moon is Illuminated
Today
Waxing Crescent
Sep 2
First Quarter
Sep 8
Full
Sep 15
Last Quarter
Sep 24
New

Today's Extremes

State Highs State Lows

Community

WunderPhotos

Upload Photos

1,749,359 photos uploaded!

Nearby

Air Quality

  Air Quality AQ Index Pollutant
Yesterday Good
OZONE
Yesterday Good
PM2.5
Current Good
PM2.5
Monday Good
OZONE
Monday Good
PM2.5
Tuesday Good
OZONE
Tuesday Good
PM2.5
Wednesday Good
OZONE
Wednesday Good
PM2.5

Snow Depth

Station Depth Elevation
Alpine Meadows 0 in 3500 ft
Lyman Lake 0 in 5900 ft
Dungeness 0 in 4100 ft
Beaver Pass 0 in 3620 ft
Rainy Pass 0 in 4780 ft

Earthquake Activity

City Distance Mag. Time & Date
No recent earthquake activity has been reported nearby.
Minimum magnitude displayed is 2.5.

Coastal Water Temperatures

Place Temperature
Port Townsend, WA 53.1 °F
Seattle, WA 55.9 °F
Friday Harbor, WA 53.1 °F
Tacoma, WA 55.0 °F

Nearby Weather Stations